Change the Weather History Date:

Sunday, April 28, 2013

  Actual Average (KMAI) Record (KMAI)
Temperature  
Mean Temperature 73 °F 70 °F  
Max Temperature 84 °F 83 °F 90 °F (2002)
Min Temperature 62 °F 57 °F 46 °F (2004)
Degree Days  
Heating Degree Days 0    
Month to date heating degree days  
Since 1 July heating degree days  
Cooling Degree Days 8    
Month to date cooling degree days  
Year to date cooling degree days  
Growing Degree Days 23 (Base 50)    
Moisture  
Dew Point 61 °F    
Average Humidity 67    
Maximum Humidity 88    
Minimum Humidity 45    
Precipitation  
Precipitation 0.00 in 0.05 in 0.56 in (1997)
Month to date precipitation 3.60  
Year to date precipitation 19.12  
Sea Level Pressure  
Sea Level Pressure 30.06 in    
Wind  
Wind Speed 6 mph (SSE)    
Max Wind Speed 17 mph    
Max Gust Speed 23 mph    
Visibility 10 miles    
Events Thunderstorm    
T = Trace of Precipitation, MM = Missing Value Source: NWS Daily Summary

Daily Weather History Graph

Daily Weather History Graph

Search for Another Location

Airport or City:

Trip Planner

Search our weather history database for the weather conditions in past years. The results will help you decide how hot, cold, wet, or windy it might be!

Date:

Astronomy

Apr. 28, 2013 Rise Set
Actual Time 6:56 AM EDT 8:15 PM EDT
Civil Twilight 6:31 AM EDT 8:41 PM EDT
Nautical Twilight 6:01 AM EDT 9:11 PM EDT
Astronomical Twilight 5:29 AM EDT 9:43 PM EDT
Moon 11:38 PM EDT (4/28) 9:19 AM EDT (4/28)
Length of Visible Light 14h 09m
Length of Day
13h 18m
Waning Gibbous, 89% of the Moon is Illuminated
Apr 28
Waning Gibbous
May 2
Last Quarter
May 9
New
May 18
First Quarter
May 25
Full

Hourly Weather History & Observations

Time (EDT) Temp. Heat Index Dew Point Humidity Pressure Visibility Wind Dir Wind Speed Gust Speed Precip Events Conditions
12:15 AM 73.4 °F - 62.6 °F 69% 30.12 in 10.0 mi Calm Calm - N/A   Mostly Cloudy
12:35 AM 71.6 °F - 64.4 °F 78% 30.11 in 10.0 mi ESE 4.6 mph - N/A   Scattered Clouds
12:55 AM 71.6 °F - 62.6 °F 73% 30.12 in 10.0 mi ESE 8.1 mph - N/A   Mostly Cloudy
1:15 AM 71.6 °F - 62.6 °F 73% 30.11 in 10.0 mi SE 8.1 mph - N/A   Scattered Clouds
1:35 AM 71.6 °F - 62.6 °F 73% 30.11 in 10.0 mi SSE 9.2 mph - N/A   Clear
1:55 AM 71.6 °F - 60.8 °F 69% 30.11 in 10.0 mi SSE 8.1 mph - N/A   Clear
2:15 AM 71.6 °F - 60.8 °F 69% 30.11 in 10.0 mi SSE 9.2 mph - N/A   Clear
2:35 AM 69.8 °F - 59.0 °F 68% 30.11 in 10.0 mi SSE 6.9 mph - N/A   Clear
2:55 AM 69.8 °F - 59.0 °F 68% 30.12 in 10.0 mi Calm Calm - N/A   Clear
3:15 AM 69.8 °F - 59.0 °F 68% 30.13 in 10.0 mi Calm Calm - N/A   Clear
3:35 AM 68.0 °F - 59.0 °F 73% 30.12 in 10.0 mi Calm Calm - N/A   Clear
3:55 AM 64.4 °F - 59.0 °F 83% 30.11 in 10.0 mi Calm Calm - N/A   Clear
4:15 AM 64.4 °F - 59.0 °F 83% 30.10 in 10.0 mi Calm Calm - N/A   Clear
4:35 AM 64.4 °F - 59.0 °F 83% 30.10 in 10.0 mi Calm Calm - N/A   Clear
4:55 AM 62.6 °F - 59.0 °F 88% 30.09 in 10.0 mi SE 3.5 mph - N/A   Clear
5:15 AM 62.6 °F - 59.0 °F 88% 30.09 in 10.0 mi ESE 3.5 mph - N/A   Clear
5:35 AM 62.6 °F - 59.0 °F 88% 30.09 in 10.0 mi ESE 3.5 mph - N/A   Clear
5:55 AM 62.6 °F - 59.0 °F 88% 30.09 in 10.0 mi SE 5.8 mph - N/A   Clear
6:15 AM 62.6 °F - 59.0 °F 88% 30.08 in 10.0 mi SE 4.6 mph - N/A   Clear
6:35 AM 62.6 °F - 59.0 °F 88% 30.08 in 10.0 mi Calm Calm - N/A   Clear
6:55 AM 62.6 °F - 59.0 °F 88% 30.09 in 10.0 mi ESE 3.5 mph - N/A   Clear
7:15 AM 62.6 °F - 59.0 °F 88% 30.10 in 10.0 mi East 3.5 mph - N/A   Clear
7:35 AM 62.6 °F - 59.0 °F 88% 30.11 in 10.0 mi ENE 3.5 mph - N/A   Clear
7:55 AM 64.4 °F - 59.0 °F 83% 30.11 in 10.0 mi East 3.5 mph - N/A   Clear
8:15 AM 64.4 °F - 59.0 °F 83% 30.11 in 10.0 mi East 3.5 mph - N/A   Clear
8:35 AM 68.0 °F - 60.8 °F 78% 30.11 in 10.0 mi East 4.6 mph - N/A   Clear
9:15 AM 69.8 °F - 62.6 °F 78% 30.11 in 10.0 mi East 3.5 mph - N/A   Clear
9:35 AM 71.6 °F - 62.6 °F 73% 30.12 in 10.0 mi Calm Calm - N/A   Scattered Clouds
9:55 AM 71.6 °F - 62.6 °F 73% 30.11 in 10.0 mi Calm Calm - N/A   Scattered Clouds
10:15 AM 75.2 °F - 64.4 °F 69% 30.11 in 10.0 mi South 12.7 mph - N/A   Clear
10:35 AM 77.0 °F - 64.4 °F 65% 30.11 in 10.0 mi SSW 6.9 mph - N/A   Clear
10:55 AM 77.0 °F - 62.6 °F 61% 30.11 in 10.0 mi South 11.5 mph - N/A   Scattered Clouds
11:15 AM 77.0 °F - 64.4 °F 65% 30.11 in 10.0 mi SSW 9.2 mph - N/A   Clear
11:35 AM 77.0 °F - 64.4 °F 65% 30.10 in 10.0 mi South 5.8 mph - N/A   Clear
11:55 AM 80.6 °F 82.3 °F 64.4 °F 58% 30.09 in 10.0 mi SSW 8.1 mph - N/A   Scattered Clouds
12:15 PM 80.6 °F 82.3 °F 64.4 °F 58% 30.08 in 10.0 mi South 10.4 mph - N/A   Scattered Clouds
12:35 PM 80.6 °F 82.3 °F 64.4 °F 58% 30.08 in 10.0 mi SSE 11.5 mph - N/A   Scattered Clouds
12:55 PM 82.4 °F 84.6 °F 66.2 °F 58% 30.07 in 10.0 mi South 9.2 mph - N/A   Scattered Clouds
1:15 PM 80.6 °F 82.3 °F 64.4 °F 58% 30.06 in 10.0 mi SSE 12.7 mph 18.4 mph N/A   Scattered Clouds
1:35 PM 82.4 °F 83.4 °F 62.6 °F 51% 30.05 in 10.0 mi South 15.0 mph 18.4 mph N/A   Scattered Clouds
1:55 PM 82.4 °F 83.9 °F 64.4 °F 54% 30.05 in 10.0 mi SSE 16.1 mph 23.0 mph N/A   Scattered Clouds
2:15 PM 82.4 °F 83.4 °F 62.6 °F 51% 30.03 in 10.0 mi South 15.0 mph 19.6 mph N/A   Scattered Clouds
2:35 PM 84.2 °F 85.0 °F 62.6 °F 48% 30.02 in 10.0 mi South 11.5 mph 17.3 mph N/A   Clear
2:55 PM 82.4 °F 83.4 °F 62.6 °F 51% 30.02 in 10.0 mi South 10.4 mph 16.1 mph N/A   Scattered Clouds
3:15 PM 82.4 °F 83.4 °F 62.6 °F 51% 30.01 in 10.0 mi SSE 15.0 mph 23.0 mph N/A Thunderstorm Scattered Clouds
3:35 PM 82.4 °F 83.4 °F 62.6 °F 51% 30.00 in 10.0 mi SSE 13.8 mph - N/A   Scattered Clouds
3:55 PM 82.4 °F 82.9 °F 60.8 °F 48% 30.00 in 10.0 mi South 13.8 mph - N/A   Scattered Clouds
4:15 PM 82.4 °F 83.4 °F 62.6 °F 51% 29.98 in 10.0 mi South 11.5 mph 19.6 mph N/A   Scattered Clouds
4:35 PM 82.4 °F 82.9 °F 60.8 °F 48% 29.98 in 10.0 mi South 12.7 mph 23.0 mph N/A   Clear
4:55 PM 82.4 °F 82.9 °F 60.8 °F 48% 29.98 in 10.0 mi SSW 12.7 mph 21.9 mph N/A   Clear
5:15 PM 82.4 °F 82.9 °F 60.8 °F 48% 29.98 in 10.0 mi South 17.3 mph 23.0 mph N/A   Clear
5:35 PM 82.4 °F 82.9 °F 60.8 °F 48% 29.98 in 10.0 mi South 16.1 mph 23.0 mph N/A   Clear
5:55 PM 82.4 °F 82.5 °F 59.0 °F 45% 29.98 in 10.0 mi South 15.0 mph 20.7 mph N/A   Clear
6:15 PM 82.4 °F 82.9 °F 60.8 °F 48% 29.99 in 10.0 mi South 15.0 mph 18.4 mph N/A   Clear
6:35 PM 80.6 °F 81.1 °F 59.0 °F 48% 29.98 in 10.0 mi South 11.5 mph 19.6 mph N/A   Clear
6:55 PM 80.6 °F 81.5 °F 60.8 °F 51% 29.98 in 10.0 mi South 9.2 mph - N/A   Clear
7:15 PM 80.6 °F 81.5 °F 60.8 °F 51% 29.98 in 10.0 mi South 8.1 mph - N/A Thunderstorm Clear
7:35 PM 78.8 °F - 60.8 °F 54% 29.98 in 10.0 mi South 8.1 mph - N/A   Clear
7:55 PM 77.0 °F - 60.8 °F 57% 29.98 in 10.0 mi SSW 5.8 mph - N/A Thunderstorm Clear
8:15 PM 77.0 °F - 60.8 °F 57% 29.98 in 10.0 mi SSW 6.9 mph - N/A   Clear
8:35 PM 77.0 °F - 62.6 °F 61% 29.98 in 10.0 mi SSW 5.8 mph - N/A   Clear
8:55 PM 73.4 °F - 60.8 °F 65% 29.98 in 10.0 mi South 4.6 mph - N/A   Clear
9:15 PM 73.4 °F - 60.8 °F 65% 29.99 in 10.0 mi SSW 3.5 mph - N/A   Clear
9:35 PM 71.6 °F - 60.8 °F 69% 30.00 in 10.0 mi Calm Calm - N/A   Clear
9:55 PM 71.6 °F - 60.8 °F 69% 30.00 in 10.0 mi Calm Calm - N/A   Clear
10:15 PM 71.6 °F - 62.6 °F 73% 30.01 in 10.0 mi South 3.5 mph - N/A   Clear
10:35 PM 71.6 °F - 62.6 °F 73% 30.00 in 10.0 mi South 3.5 mph - N/A   Clear
10:55 PM 71.6 °F - 64.4 °F 78% 30.01 in 10.0 mi Calm Calm - N/A   Clear
11:15 PM 69.8 °F - 62.6 °F 78% 30.01 in 10.0 mi Calm Calm - N/A   Clear
11:35 PM 69.8 °F - 62.6 °F 78% 30.02 in 10.0 mi Calm Calm - N/A   Clear
11:55 PM 68.0 °F - 62.6 °F 83% 30.01 in 10.0 mi Calm Calm - N/A   Clear